Amarant — CQSF — position and weather

sailwx.info

Track history (hours):
 
Tides and Currents Weather Stations Pressure Air Temp Water Temp Dewpoint Dewpoint Depression Visibility Wind Speed Wind Dir Waves Ship Positions

Amarant

Last reported at 2015-Mar-02 14:33 UTC. Time now 2015-Mar-02 15:07 UTC.
Position N 53°34' E 009°43'.

Length 120 m; draft 5.4 m.

Type: Tanker. MMSI: 255623000.

Date/timePositionNaut miles runAvg speedWind from/ knotsBaromVisibWave heightAir tempDewpointWater temp
2015-Mar-02 14:33N 53°34' E 009°43'9 8.6
2015-Mar-02 13:33N 53°30' E 009°56'2 1.6
2015-Mar-02 12:32N 53°29' E 009°58'0 0.0
2015-Mar-02 11:32N 53°29' E 009°58'0 0.0
2015-Mar-02 10:32N 53°29' E 009°58'0 0.0
2015-Mar-02 09:32N 53°29' E 009°58'0 0.0
2015-Mar-02 08:32N 53°29' E 009°58'0 0.0
2015-Mar-02 07:32N 53°29' E 009°58'0 0.0
2015-Mar-02 06:29N 53°29' E 009°58'0 0.0
2015-Mar-02 05:32N 53°29' E 009°58'0 0.0
2015-Mar-02 04:32N 53°29' E 009°58'0 0.0
2015-Mar-02 03:32N 53°29' E 009°58'0 0.0
2015-Mar-02 02:32N 53°29' E 009°58'0 0.0
2015-Mar-02 01:32N 53°29' E 009°58'0 0.0
2015-Mar-02 00:32N 53°29' E 009°58'0 0.0
2015-Mar-01 23:32N 53°29' E 009°58'0 0.0
2015-Mar-01 22:32N 53°29' E 009°58'0 0.0
2015-Mar-01 21:32N 53°29' E 009°58'0 0.0
2015-Mar-01 20:32N 53°29' E 009°58'0 0.0
2015-Mar-01 19:31N 53°29' E 009°58'0 0.0
2015-Mar-01 18:31N 53°29' E 009°58'0 0.0
2015-Mar-01 17:33N 53°29' E 009°58'3 2.9
2015-Mar-01 16:33N 53°32' E 009°56'7 7.4
2015-Mar-01 15:33N 53°34' E 009°44'10 9.6
2015-Mar-01 14:33N 53°39' E 009°31'1010.0
2015-Mar-01 13:33N 53°48' E 009°23'1010.1
2015-Mar-01 12:33N 53°53' E 009°08'8 8.4
2015-Mar-01 11:33N 53°50' E 008°54'8 7.6
2015-Mar-01 10:33N 53°53' E 008°42'7 7.3
2015-Mar-01 09:33N 53°58' E 008°32'9 9.1
2015-Mar-01 08:33N 53°60' E 008°17'8 7.6
2015-Mar-01 07:33N 53°59' E 008°04'4 3.8
2015-Mar-01 06:33N 53°59' E 007°58'4 4.1
2015-Mar-01 05:33N 53°58' E 007°51'7 7.1
2015-Mar-01 04:33N 53°56' E 007°40'1211.9
2015-Mar-01 03:33N 53°53' E 007°20'3913.0
2015-Mar-01 00:33N 53°44' E 006°15'1312.8
2015-Feb-28 23:33N 53°40' E 005°55'1312.8
2015-Feb-28 22:33N 53°36' E 005°34'1312.8
2015-Feb-28 21:33N 53°31' E 005°14'1313.1
2015-Feb-28 20:33N 53°27' E 004°54'1212.2
2015-Feb-28 19:33N 53°19' E 004°39'1613.0
2015-Feb-28 18:21N 53°05' E 004°26'1412.9
2015-Feb-28 17:18N 52°53' E 004°16'912.7
2015-Feb-28 16:33N 52°45' E 004°07'1813.0
2015-Feb-28 15:11N 52°33' E 003°46'1013.4
2015-Feb-28 14:28N 52°26' E 003°35'1513.7
2015-Feb-28 13:20N 52°11' E 003°27'1214.1
2015-Feb-28 12:27N 51°59' E 003°23'1314.1
2015-Feb-28 11:31N 51°46' E 003°16'1414.5
2015-Feb-28 10:34N 51°33' E 003°25'1212.3
2015-Feb-28 09:33N 51°25' E 003°39'1111.1
2015-Feb-28 08:33N 51°24' E 003°57'8 8.3
2015-Feb-28 07:34N 51°23' E 004°10'9 9.1
2015-Feb-28 06:34N 51°17' E 004°20'0 0.4
2015-Feb-28 05:34N 51°16' E 004°20'1 0.6
2015-Feb-28 04:33N 51°16' E 004°21'0 0.0
2015-Feb-28 03:33N 51°16' E 004°21'0 0.0
2015-Feb-28 02:33N 51°16' E 004°21'0 0.0
2015-Feb-28 01:33N 51°16' E 004°21'0 0.0
2015-Feb-28 00:33N 51°16' E 004°21'0 0.0
2015-Feb-27 23:33N 51°16' E 004°21'0 0.0
2015-Feb-27 22:33N 51°16' E 004°21'0 0.0
2015-Feb-27 21:33N 51°16' E 004°21'0 0.0
2015-Feb-27 20:33N 51°16' E 004°21'0 0.0
2015-Feb-27 19:33N 51°16' E 004°21'0 0.0
2015-Feb-27 18:33N 51°16' E 004°21'1 1.4
2015-Feb-27 17:33N 51°15' E 004°23'0 0.0
2015-Feb-27 16:33N 51°15' E 004°23'0 0.0
2015-Feb-27 15:33N 51°15' E 004°23'0 0.0
2015-Feb-27 14:33N 51°15' E 004°23'0 0.0
2015-Feb-27 13:33N 51°15' E 004°23'0 0.0
2015-Feb-27 12:33N 51°15' E 004°23'0 0.0
2015-Feb-27 11:33N 51°15' E 004°23'0 0.0
2015-Feb-27 10:33N 51°15' E 004°23'0 0.0
2015-Feb-27 09:33N 51°15' E 004°23'0 0.0
2015-Feb-27 08:33N 51°15' E 004°23'0 0.0
2015-Feb-27 07:33N 51°15' E 004°23'0 0.0
2015-Feb-27 06:33N 51°15' E 004°23'0 0.0
2015-Feb-27 05:33N 51°15' E 004°23'0 0.0
2015-Feb-27 04:33N 51°15' E 004°23'0 0.0
2015-Feb-27 03:33N 51°15' E 004°23'0 0.0
2015-Feb-27 02:33N 51°15' E 004°23'0 0.0
2015-Feb-27 01:33N 51°15' E 004°23'4 4.3
2015-Feb-27 00:33N 51°19' E 004°19'2 2.1
2015-Feb-26 23:33N 51°21' E 004°17'1 1.2
2015-Feb-26 22:33N 51°21' E 004°15'4 3.9
2015-Feb-26 21:34N 51°24' E 004°11'8 8.4
2015-Feb-26 20:33N 51°24' E 003°57'1010.1
2015-Feb-26 19:33N 51°26' E 003°41'1211.6
2015-Feb-26 18:33N 51°32' E 003°25'1312.9
2015-Feb-26 17:33N 51°43' E 003°15'1212.2
2015-Feb-26 16:33N 51°55' E 003°19'8311.6
2015-Feb-26 09:24N 53°09' E 004°20'2511.4
2015-Feb-26 07:15N 53°32' E 004°36'4712.7
2015-Feb-26 03:33N 54°16' E 005°02'27711.4
2015-Feb-25 03:13N 57°47' E 010°24'710.0
2015-Feb-25 02:33N 57°48' E 010°37'1110.6
2015-Feb-25 01:33N 57°46' E 010°56'1413.6
2015-Feb-25 00:33N 57°35' E 011°13'1413.6
2015-Feb-24 23:33N 57°25' E 011°28'1413.6
2015-Feb-24 22:33N 57°12' E 011°37'1313.3
2015-Feb-24 21:33N 56°60' E 011°47'1313.3
2015-Feb-24 20:33N 56°47' E 011°53'1313.4
2015-Feb-24 19:33N 56°34' E 011°59'1313.2
2015-Feb-24 18:33N 56°22' E 012°11'1313.5
2015-Feb-24 17:34N 56°12' E 012°26'1414.4
2015-Feb-24 16:34N 56°00' E 012°41'1413.5
2015-Feb-24 15:33N 55°47' E 012°43'1212.3
2015-Feb-24 14:33N 55°34' E 012°42'1212.1
2015-Feb-24 13:33N 55°22' E 012°40'1010.3
2015-Feb-24 12:33N 55°16' E 012°55'1312.6
2015-Feb-24 11:33N 55°15' E 013°17'1313.0
2015-Feb-24 10:33N 55°15' E 013°40'1312.9
2015-Feb-24 09:33N 55°14' E 014°02'1211.9
2015-Feb-24 08:33N 55°18' E 014°22'1313.1
2015-Feb-24 07:33N 55°28' E 014°37'1312.9
2015-Feb-24 06:33N 55°34' E 014°57'1312.9
2015-Feb-24 05:32N 55°41' E 015°17'10812.0
2015-Feb-23 20:33N 57°07' E 017°14'1111.0
2015-Feb-23 19:33N 57°18' E 017°18'1010.1
2015-Feb-23 18:33N 57°27' E 017°21'10 9.8
2015-Feb-23 17:30N 57°37' E 017°26'68 9.6
2015-Feb-23 10:30N 58°44' E 017°52'1010.3
2015-Feb-23 09:33N 58°52' E 018°00'3 2.6
2015-Feb-23 08:26N 58°55' E 017°58'0 0.0
2015-Feb-23 07:32N 58°55' E 017°58'0 0.0
2015-Feb-23 06:29N 58°55' E 017°58'0 0.0
2015-Feb-23 05:29N 58°55' E 017°58'0 0.0
2015-Feb-23 04:29N 58°55' E 017°58'0 0.0
2015-Feb-23 03:23N 58°55' E 017°58'0 0.0
2015-Feb-23 02:29N 58°55' E 017°58'0 0.0
2015-Feb-23 01:29N 58°55' E 017°58'0 0.0
2015-Feb-23 00:29N 58°55' E 017°58'0 0.0
2015-Feb-22 23:29N 58°55' E 017°58'0 0.0
2015-Feb-22 22:29N 58°55' E 017°58'0 0.0
2015-Feb-22 21:29N 58°55' E 017°58'0 0.0
2015-Feb-22 20:29N 58°55' E 017°58'0 0.0
2015-Feb-22 19:29N 58°55' E 017°58'0 0.0
2015-Feb-22 18:29N 58°55' E 017°58'0 0.0
2015-Feb-22 17:29N 58°55' E 017°58'0 0.0
2015-Feb-22 16:29N 58°55' E 017°58'0 0.0
2015-Feb-22 15:28N 58°55' E 017°58'0 0.2
2015-Feb-22 14:33N 58°55' E 017°58'7 7.0
2015-Feb-22 13:33N 58°48' E 017°58'8710.9
2015-Feb-22 05:33N 57°23' E 017°21'1313.4
2015-Feb-22 04:33N 57°10' E 017°16'11612.8
2015-Feb-21 19:31N 55°35' E 015°16'1415.1
2015-Feb-21 18:33N 55°28' E 014°53'1514.7
2015-Feb-21 17:33N 55°18' E 014°34'1413.8
2015-Feb-21 16:33N 55°10' E 014°14'4214.1
2015-Feb-21 13:33N 55°13' E 013°00'1413.7
2015-Feb-21 12:33N 55°18' E 012°39'1313.1
2015-Feb-21 11:33N 55°31' E 012°42'1111.0
2015-Feb-21 10:33N 55°42' E 012°41'1413.6
2015-Feb-21 09:33N 55°56' E 012°38'1312.9
2015-Feb-21 08:33N 56°08' E 012°30'1414.1
2015-Feb-21 07:33N 56°16' E 012°09'1713.6
2015-Feb-21 06:17N 56°32' E 011°57'1014.0
2015-Feb-21 05:34N 56°42' E 011°53'1414.1
2015-Feb-21 04:33N 56°55' E 011°46'1414.1
2015-Feb-21 03:32N 57°09' E 011°37'1414.0
2015-Feb-21 02:33N 57°22' E 011°28'1313.5
2015-Feb-21 01:34N 57°33' E 011°14'1413.5
2015-Feb-21 00:32N 57°42' E 010°54'1313.0
2015-Feb-20 23:33N 57°46' E 010°31'6014.7
2015-Feb-20 19:29N 57°18' E 008°53'1914.8
2015-Feb-20 18:12N 57°08' E 008°23'1314.8
2015-Feb-20 17:20N 57°00' E 008°04'  
Track history (hours):
 
Tides and Currents Weather Stations Pressure Air Temp Water Temp Dewpoint Dewpoint Depression Visibility Wind Speed Wind Dir Waves Ship Positions

Amarant

Last reported at 2015-Mar-02 14:33 UTC. Time now 2015-Mar-02 15:07 UTC.
Position N 53°34' E 009°43'.

Length 120 m; draft 5.4 m.

Type: Tanker. MMSI: 255623000.

Date/timePositionNaut miles runAvg speedWind from/ knotsBaromVisibWave heightAir tempDewpointWater temp
2015-Mar-02 14:33N 53°34' E 009°43'9 8.6
2015-Mar-02 13:33N 53°30' E 009°56'2 1.6
2015-Mar-02 12:32N 53°29' E 009°58'0 0.0
2015-Mar-02 11:32N 53°29' E 009°58'0 0.0
2015-Mar-02 10:32N 53°29' E 009°58'0 0.0
2015-Mar-02 09:32N 53°29' E 009°58'0 0.0
2015-Mar-02 08:32N 53°29' E 009°58'0 0.0
2015-Mar-02 07:32N 53°29' E 009°58'0 0.0
2015-Mar-02 06:29N 53°29' E 009°58'0 0.0
2015-Mar-02 05:32N 53°29' E 009°58'0 0.0
2015-Mar-02 04:32N 53°29' E 009°58'0 0.0
2015-Mar-02 03:32N 53°29' E 009°58'0 0.0
2015-Mar-02 02:32N 53°29' E 009°58'0 0.0
2015-Mar-02 01:32N 53°29' E 009°58'0 0.0
2015-Mar-02 00:32N 53°29' E 009°58'0 0.0
2015-Mar-01 23:32N 53°29' E 009°58'0 0.0
2015-Mar-01 22:32N 53°29' E 009°58'0 0.0
2015-Mar-01 21:32N 53°29' E 009°58'0 0.0
2015-Mar-01 20:32N 53°29' E 009°58'0 0.0
2015-Mar-01 19:31N 53°29' E 009°58'0 0.0
2015-Mar-01 18:31N 53°29' E 009°58'0 0.0
2015-Mar-01 17:33N 53°29' E 009°58'3 2.9
2015-Mar-01 16:33N 53°32' E 009°56'7 7.4
2015-Mar-01 15:33N 53°34' E 009°44'10 9.6
2015-Mar-01 14:33N 53°39' E 009°31'1010.0
2015-Mar-01 13:33N 53°48' E 009°23'1010.1
2015-Mar-01 12:33N 53°53' E 009°08'8 8.4
2015-Mar-01 11:33N 53°50' E 008°54'8 7.6
2015-Mar-01 10:33N 53°53' E 008°42'7 7.3
2015-Mar-01 09:33N 53°58' E 008°32'9 9.1
2015-Mar-01 08:33N 53°60' E 008°17'8 7.6
2015-Mar-01 07:33N 53°59' E 008°04'4 3.8
2015-Mar-01 06:33N 53°59' E 007°58'4 4.1
2015-Mar-01 05:33N 53°58' E 007°51'7 7.1
2015-Mar-01 04:33N 53°56' E 007°40'1211.9
2015-Mar-01 03:33N 53°53' E 007°20'3913.0
2015-Mar-01 00:33N 53°44' E 006°15'1312.8
2015-Feb-28 23:33N 53°40' E 005°55'1312.8
2015-Feb-28 22:33N 53°36' E 005°34'1312.8
2015-Feb-28 21:33N 53°31' E 005°14'1313.1
2015-Feb-28 20:33N 53°27' E 004°54'1212.2
2015-Feb-28 19:33N 53°19' E 004°39'1613.0
2015-Feb-28 18:21N 53°05' E 004°26'1412.9
2015-Feb-28 17:18N 52°53' E 004°16'912.7
2015-Feb-28 16:33N 52°45' E 004°07'1813.0
2015-Feb-28 15:11N 52°33' E 003°46'1013.4
2015-Feb-28 14:28N 52°26' E 003°35'1513.7
2015-Feb-28 13:20N 52°11' E 003°27'1214.1
2015-Feb-28 12:27N 51°59' E 003°23'1314.1
2015-Feb-28 11:31N 51°46' E 003°16'1414.5
2015-Feb-28 10:34N 51°33' E 003°25'1212.3
2015-Feb-28 09:33N 51°25' E 003°39'1111.1
2015-Feb-28 08:33N 51°24' E 003°57'8 8.3
2015-Feb-28 07:34N 51°23' E 004°10'9 9.1
2015-Feb-28 06:34N 51°17' E 004°20'0 0.4
2015-Feb-28 05:34N 51°16' E 004°20'1 0.6
2015-Feb-28 04:33N 51°16' E 004°21'0 0.0
2015-Feb-28 03:33N 51°16' E 004°21'0 0.0
2015-Feb-28 02:33N 51°16' E 004°21'0 0.0
2015-Feb-28 01:33N 51°16' E 004°21'0 0.0
2015-Feb-28 00:33N 51°16' E 004°21'0 0.0
2015-Feb-27 23:33N 51°16' E 004°21'0 0.0
2015-Feb-27 22:33N 51°16' E 004°21'0 0.0
2015-Feb-27 21:33N 51°16' E 004°21'0 0.0
2015-Feb-27 20:33N 51°16' E 004°21'0 0.0
2015-Feb-27 19:33N 51°16' E 004°21'0 0.0
2015-Feb-27 18:33N 51°16' E 004°21'1 1.4
2015-Feb-27 17:33N 51°15' E 004°23'0 0.0
2015-Feb-27 16:33N 51°15' E 004°23'0 0.0
2015-Feb-27 15:33N 51°15' E 004°23'0 0.0
2015-Feb-27 14:33N 51°15' E 004°23'0 0.0
2015-Feb-27 13:33N 51°15' E 004°23'0 0.0
2015-Feb-27 12:33N 51°15' E 004°23'0 0.0
2015-Feb-27 11:33N 51°15' E 004°23'0 0.0
2015-Feb-27 10:33N 51°15' E 004°23'0 0.0
2015-Feb-27 09:33N 51°15' E 004°23'0 0.0
2015-Feb-27 08:33N 51°15' E 004°23'0 0.0
2015-Feb-27 07:33N 51°15' E 004°23'0 0.0
2015-Feb-27 06:33N 51°15' E 004°23'0 0.0
2015-Feb-27 05:33N 51°15' E 004°23'0 0.0
2015-Feb-27 04:33N 51°15' E 004°23'0 0.0
2015-Feb-27 03:33N 51°15' E 004°23'0 0.0
2015-Feb-27 02:33N 51°15' E 004°23'0 0.0
2015-Feb-27 01:33N 51°15' E 004°23'4 4.3
2015-Feb-27 00:33N 51°19' E 004°19'2 2.1
2015-Feb-26 23:33N 51°21' E 004°17'1 1.2
2015-Feb-26 22:33N 51°21' E 004°15'4 3.9
2015-Feb-26 21:34N 51°24' E 004°11'8 8.4
2015-Feb-26 20:33N 51°24' E 003°57'1010.1
2015-Feb-26 19:33N 51°26' E 003°41'1211.6
2015-Feb-26 18:33N 51°32' E 003°25'1312.9
2015-Feb-26 17:33N 51°43' E 003°15'1212.2
2015-Feb-26 16:33N 51°55' E 003°19'8311.6
2015-Feb-26 09:24N 53°09' E 004°20'2511.4
2015-Feb-26 07:15N 53°32' E 004°36'4712.7
2015-Feb-26 03:33N 54°16' E 005°02'27711.4
2015-Feb-25 03:13N 57°47' E 010°24'710.0
2015-Feb-25 02:33N 57°48' E 010°37'1110.6
2015-Feb-25 01:33N 57°46' E 010°56'1413.6
2015-Feb-25 00:33N 57°35' E 011°13'1413.6
2015-Feb-24 23:33N 57°25' E 011°28'1413.6
2015-Feb-24 22:33N 57°12' E 011°37'1313.3
2015-Feb-24 21:33N 56°60' E 011°47'1313.3
2015-Feb-24 20:33N 56°47' E 011°53'1313.4
2015-Feb-24 19:33N 56°34' E 011°59'1313.2
2015-Feb-24 18:33N 56°22' E 012°11'1313.5
2015-Feb-24 17:34N 56°12' E 012°26'1414.4
2015-Feb-24 16:34N 56°00' E 012°41'1413.5
2015-Feb-24 15:33N 55°47' E 012°43'1212.3
2015-Feb-24 14:33N 55°34' E 012°42'1212.1
2015-Feb-24 13:33N 55°22' E 012°40'1010.3
2015-Feb-24 12:33N 55°16' E 012°55'1312.6
2015-Feb-24 11:33N 55°15' E 013°17'1313.0
2015-Feb-24 10:33N 55°15' E 013°40'1312.9
2015-Feb-24 09:33N 55°14' E 014°02'1211.9
2015-Feb-24 08:33N 55°18' E 014°22'1313.1
2015-Feb-24 07:33N 55°28' E 014°37'1312.9
2015-Feb-24 06:33N 55°34' E 014°57'1312.9
2015-Feb-24 05:32N 55°41' E 015°17'10812.0
2015-Feb-23 20:33N 57°07' E 017°14'1111.0
2015-Feb-23 19:33N 57°18' E 017°18'1010.1
2015-Feb-23 18:33N 57°27' E 017°21'10 9.8
2015-Feb-23 17:30N 57°37' E 017°26'68 9.6
2015-Feb-23 10:30N 58°44' E 017°52'1010.3
2015-Feb-23 09:33N 58°52' E 018°00'3 2.6
2015-Feb-23 08:26N 58°55' E 017°58'0 0.0
2015-Feb-23 07:32N 58°55' E 017°58'0 0.0
2015-Feb-23 06:29N 58°55' E 017°58'0 0.0
2015-Feb-23 05:29N 58°55' E 017°58'0 0.0
2015-Feb-23 04:29N 58°55' E 017°58'0 0.0
2015-Feb-23 03:23N 58°55' E 017°58'0 0.0
2015-Feb-23 02:29N 58°55' E 017°58'0 0.0
2015-Feb-23 01:29N 58°55' E 017°58'0 0.0
2015-Feb-23 00:29N 58°55' E 017°58'0 0.0
2015-Feb-22 23:29N 58°55' E 017°58'0 0.0
2015-Feb-22 22:29N 58°55' E 017°58'0 0.0
2015-Feb-22 21:29N 58°55' E 017°58'0 0.0
2015-Feb-22 20:29N 58°55' E 017°58'0 0.0
2015-Feb-22 19:29N 58°55' E 017°58'0 0.0
2015-Feb-22 18:29N 58°55' E 017°58'0 0.0
2015-Feb-22 17:29N 58°55' E 017°58'0 0.0
2015-Feb-22 16:29N 58°55' E 017°58'0 0.0
2015-Feb-22 15:28N 58°55' E 017°58'0 0.2
2015-Feb-22 14:33N 58°55' E 017°58'7 7.0
2015-Feb-22 13:33N 58°48' E 017°58'8710.9
2015-Feb-22 05:33N 57°23' E 017°21'1313.4
2015-Feb-22 04:33N 57°10' E 017°16'11612.8
2015-Feb-21 19:31N 55°35' E 015°16'1415.1
2015-Feb-21 18:33N 55°28' E 014°53'1514.7
2015-Feb-21 17:33N 55°18' E 014°34'1413.8
2015-Feb-21 16:33N 55°10' E 014°14'4214.1
2015-Feb-21 13:33N 55°13' E 013°00'1413.7
2015-Feb-21 12:33N 55°18' E 012°39'1313.1
2015-Feb-21 11:33N 55°31' E 012°42'1111.0
2015-Feb-21 10:33N 55°42' E 012°41'1413.6
2015-Feb-21 09:33N 55°56' E 012°38'1312.9
2015-Feb-21 08:33N 56°08' E 012°30'1414.1
2015-Feb-21 07:33N 56°16' E 012°09'1713.6
2015-Feb-21 06:17N 56°32' E 011°57'1014.0
2015-Feb-21 05:34N 56°42' E 011°53'1414.1
2015-Feb-21 04:33N 56°55' E 011°46'1414.1
2015-Feb-21 03:32N 57°09' E 011°37'1414.0
2015-Feb-21 02:33N 57°22' E 011°28'1313.5
2015-Feb-21 01:34N 57°33' E 011°14'1413.5
2015-Feb-21 00:32N 57°42' E 010°54'1313.0
2015-Feb-20 23:33N 57°46' E 010°31'6014.7
2015-Feb-20 19:29N 57°18' E 008°53'1914.8
2015-Feb-20 18:12N 57°08' E 008°23'1314.8
2015-Feb-20 17:20N 57°00' E 008°04'  

Dump ship's entire track history